sensor_id;sensor_type;location;lat;lon;timestamp;P1;durP1;ratioP1;P2;durP2;ratioP2
53253;SDS011;39148;53.332;6.922;2023-07-29T00:01:31;4.50;;;2.42;;
53253;SDS011;39148;53.332;6.922;2023-07-29T00:03:58;3.42;;;2.10;;
53253;SDS011;39148;53.332;6.922;2023-07-29T00:06:24;3.30;;;2.13;;
53253;SDS011;39148;53.332;6.922;2023-07-29T00:08:50;4.70;;;2.40;;
53253;SDS011;39148;53.332;6.922;2023-07-29T00:11:15;8.25;;;2.35;;
53253;SDS011;39148;53.332;6.922;2023-07-29T00:13:41;4.25;;;2.50;;
53253;SDS011;39148;53.332;6.922;2023-07-29T00:16:07;4.45;;;2.60;;
53253;SDS011;39148;53.332;6.922;2023-07-29T00:18:32;3.25;;;2.20;;
53253;SDS011;39148;53.332;6.922;2023-07-29T00:20:58;4.30;;;2.58;;
53253;SDS011;39148;53.332;6.922;2023-07-29T00:23:24;4.95;;;2.42;;
53253;SDS011;39148;53.332;6.922;2023-07-29T00:25:50;3.95;;;2.55;;
53253;SDS011;39148;53.332;6.922;2023-07-29T00:28:15;3.83;;;2.60;;
53253;SDS011;39148;53.332;6.922;2023-07-29T00:30:41;4.03;;;2.58;;
53253;SDS011;39148;53.332;6.922;2023-07-29T00:33:07;3.35;;;2.10;;
53253;SDS011;39148;53.332;6.922;2023-07-29T00:35:33;4.13;;;2.00;;
53253;SDS011;39148;53.332;6.922;2023-07-29T00:37:59;3.28;;;2.40;;
53253;SDS011;39148;53.332;6.922;2023-07-29T00:40:24;3.60;;;2.17;;
53253;SDS011;39148;53.332;6.922;2023-07-29T00:42:53;5.18;;;2.63;;
53253;SDS011;39148;53.332;6.922;2023-07-29T00:45:19;4.05;;;2.30;;
53253;SDS011;39148;53.332;6.922;2023-07-29T00:47:45;4.80;;;2.60;;
53253;SDS011;39148;53.332;6.922;2023-07-29T00:50:11;4.40;;;2.60;;
53253;SDS011;39148;53.332;6.922;2023-07-29T00:52:38;4.22;;;2.40;;
53253;SDS011;39148;53.332;6.922;2023-07-29T00:55:04;3.35;;;2.13;;
53253;SDS011;39148;53.332;6.922;2023-07-29T00:57:31;4.10;;;2.72;;
53253;SDS011;39148;53.332;6.922;2023-07-29T00:59:58;5.10;;;2.80;;
53253;SDS011;39148;53.332;6.922;2023-07-29T01:02:24;4.32;;;2.38;;
53253;SDS011;39148;53.332;6.922;2023-07-29T01:04:54;4.10;;;2.08;;
53253;SDS011;39148;53.332;6.922;2023-07-29T01:07:33;4.95;;;2.60;;
53253;SDS011;39148;53.332;6.922;2023-07-29T01:10:40;4.07;;;2.47;;
53253;SDS011;39148;53.332;6.922;2023-07-29T01:13:17;3.83;;;2.40;;
53253;SDS011;39148;53.332;6.922;2023-07-29T01:16:05;3.58;;;2.38;;
53253;SDS011;39148;53.332;6.922;2023-07-29T01:18:37;4.32;;;2.47;;
53253;SDS011;39148;53.332;6.922;2023-07-29T01:21:07;3.80;;;2.20;;
53253;SDS011;39148;53.332;6.922;2023-07-29T01:23:33;3.85;;;2.38;;
53253;SDS011;39148;53.332;6.922;2023-07-29T01:26:01;3.88;;;2.63;;
53253;SDS011;39148;53.332;6.922;2023-07-29T01:28:28;3.88;;;2.30;;
53253;SDS011;39148;53.332;6.922;2023-07-29T01:30:58;4.20;;;2.50;;
53253;SDS011;39148;53.332;6.922;2023-07-29T01:33:37;3.30;;;2.13;;
53253;SDS011;39148;53.332;6.922;2023-07-29T01:36:15;4.88;;;2.60;;
53253;SDS011;39148;53.332;6.922;2023-07-29T01:38:45;4.30;;;2.40;;
53253;SDS011;39148;53.332;6.922;2023-07-29T01:41:14;3.70;;;2.10;;
53253;SDS011;39148;53.332;6.922;2023-07-29T01:43:41;5.45;;;2.83;;
53253;SDS011;39148;53.332;6.922;2023-07-29T01:46:09;3.63;;;2.30;;
53253;SDS011;39148;53.332;6.922;2023-07-29T01:48:36;3.97;;;2.38;;
53253;SDS011;39148;53.332;6.922;2023-07-29T01:51:02;4.07;;;2.60;;
53253;SDS011;39148;53.332;6.922;2023-07-29T01:53:28;4.22;;;2.47;;
53253;SDS011;39148;53.332;6.922;2023-07-29T01:55:54;3.83;;;2.40;;
53253;SDS011;39148;53.332;6.922;2023-07-29T01:58:22;4.03;;;2.45;;
53253;SDS011;39148;53.332;6.922;2023-07-29T02:00:47;4.47;;;2.53;;
53253;SDS011;39148;53.332;6.922;2023-07-29T02:03:13;4.35;;;2.50;;
53253;SDS011;39148;53.332;6.922;2023-07-29T02:05:39;4.18;;;2.70;;
53253;SDS011;39148;53.332;6.922;2023-07-29T02:08:05;5.15;;;3.08;;
53253;SDS011;39148;53.332;6.922;2023-07-29T02:10:31;3.90;;;2.53;;
53253;SDS011;39148;53.332;6.922;2023-07-29T02:12:57;4.72;;;3.08;;
53253;SDS011;39148;53.332;6.922;2023-07-29T02:15:22;4.72;;;3.05;;
53253;SDS011;39148;53.332;6.922;2023-07-29T02:17:49;4.72;;;2.60;;
53253;SDS011;39148;53.332;6.922;2023-07-29T02:20:15;5.55;;;3.13;;
53253;SDS011;39148;53.332;6.922;2023-07-29T02:22:41;4.90;;;2.67;;
53253;SDS011;39148;53.332;6.922;2023-07-29T02:25:07;5.03;;;2.90;;
53253;SDS011;39148;53.332;6.922;2023-07-29T02:27:33;4.85;;;2.67;;
53253;SDS011;39148;53.332;6.922;2023-07-29T02:29:58;3.70;;;2.38;;
53253;SDS011;39148;53.332;6.922;2023-07-29T02:32:24;4.45;;;2.58;;
53253;SDS011;39148;53.332;6.922;2023-07-29T02:34:50;4.28;;;2.38;;
53253;SDS011;39148;53.332;6.922;2023-07-29T02:37:15;3.78;;;2.55;;
53253;SDS011;39148;53.332;6.922;2023-07-29T02:39:42;4.97;;;2.50;;
53253;SDS011;39148;53.332;6.922;2023-07-29T02:42:07;6.75;;;2.40;;
53253;SDS011;39148;53.332;6.922;2023-07-29T02:44:33;3.45;;;2.35;;
53253;SDS011;39148;53.332;6.922;2023-07-29T02:46:59;4.53;;;2.42;;
53253;SDS011;39148;53.332;6.922;2023-07-29T02:49:24;4.43;;;2.65;;
53253;SDS011;39148;53.332;6.922;2023-07-29T02:51:50;4.32;;;2.53;;
53253;SDS011;39148;53.332;6.922;2023-07-29T02:54:16;4.20;;;2.50;;
53253;SDS011;39148;53.332;6.922;2023-07-29T02:56:41;3.72;;;2.40;;
53253;SDS011;39148;53.332;6.922;2023-07-29T02:59:07;3.70;;;2.40;;
53253;SDS011;39148;53.332;6.922;2023-07-29T03:01:33;4.05;;;2.70;;
53253;SDS011;39148;53.332;6.922;2023-07-29T03:03:59;4.57;;;2.47;;
53253;SDS011;39148;53.332;6.922;2023-07-29T03:06:24;4.20;;;2.70;;
53253;SDS011;39148;53.332;6.922;2023-07-29T03:08:50;4.50;;;2.53;;
53253;SDS011;39148;53.332;6.922;2023-07-29T03:11:16;4.28;;;2.45;;
53253;SDS011;39148;53.332;6.922;2023-07-29T03:13:42;3.85;;;2.10;;
53253;SDS011;39148;53.332;6.922;2023-07-29T03:16:09;4.63;;;2.50;;
53253;SDS011;39148;53.332;6.922;2023-07-29T03:18:36;5.18;;;2.42;;
53253;SDS011;39148;53.332;6.922;2023-07-29T03:21:02;3.88;;;2.28;;
53253;SDS011;39148;53.332;6.922;2023-07-29T03:23:29;4.30;;;2.55;;
53253;SDS011;39148;53.332;6.922;2023-07-29T03:25:56;3.88;;;2.47;;
53253;SDS011;39148;53.332;6.922;2023-07-29T03:28:27;4.50;;;2.60;;
53253;SDS011;39148;53.332;6.922;2023-07-29T03:33:20;4.95;;;2.90;;
53253;SDS011;39148;53.332;6.922;2023-07-29T03:35:46;3.15;;;1.95;;
53253;SDS011;39148;53.332;6.922;2023-07-29T03:38:12;5.03;;;2.83;;
53253;SDS011;39148;53.332;6.922;2023-07-29T03:40:38;4.53;;;2.38;;
53253;SDS011;39148;53.332;6.922;2023-07-29T03:43:04;5.13;;;3.33;;
53253;SDS011;39148;53.332;6.922;2023-07-29T03:45:30;3.80;;;2.30;;
53253;SDS011;39148;53.332;6.922;2023-07-29T03:47:56;4.85;;;3.03;;
53253;SDS011;39148;53.332;6.922;2023-07-29T03:50:22;3.67;;;2.15;;
53253;SDS011;39148;53.332;6.922;2023-07-29T03:52:47;4.25;;;2.63;;
53253;SDS011;39148;53.332;6.922;2023-07-29T03:55:13;4.22;;;2.33;;
53253;SDS011;39148;53.332;6.922;2023-07-29T03:57:39;5.88;;;2.63;;
53253;SDS011;39148;53.332;6.922;2023-07-29T04:00:05;5.82;;;2.50;;
53253;SDS011;39148;53.332;6.922;2023-07-29T04:02:31;4.25;;;2.72;;
53253;SDS011;39148;53.332;6.922;2023-07-29T04:04:56;5.35;;;2.75;;
53253;SDS011;39148;53.332;6.922;2023-07-29T04:07:22;3.60;;;2.30;;
53253;SDS011;39148;53.332;6.922;2023-07-29T04:09:48;4.72;;;2.53;;
53253;SDS011;39148;53.332;6.922;2023-07-29T04:12:14;4.28;;;2.40;;
53253;SDS011;39148;53.332;6.922;2023-07-29T04:14:40;4.60;;;2.75;;
53253;SDS011;39148;53.332;6.922;2023-07-29T04:17:07;5.47;;;2.72;;
53253;SDS011;39148;53.332;6.922;2023-07-29T04:19:32;3.58;;;2.17;;
53253;SDS011;39148;53.332;6.922;2023-07-29T04:21:58;4.28;;;2.50;;
53253;SDS011;39148;53.332;6.922;2023-07-29T04:24:24;4.45;;;2.50;;
53253;SDS011;39148;53.332;6.922;2023-07-29T04:26:50;4.07;;;2.40;;
53253;SDS011;39148;53.332;6.922;2023-07-29T04:29:16;4.15;;;2.10;;
53253;SDS011;39148;53.332;6.922;2023-07-29T04:31:41;4.07;;;2.30;;
53253;SDS011;39148;53.332;6.922;2023-07-29T04:34:07;3.42;;;2.10;;
53253;SDS011;39148;53.332;6.922;2023-07-29T04:36:34;3.72;;;2.42;;
53253;SDS011;39148;53.332;6.922;2023-07-29T04:39:00;3.75;;;2.13;;
53253;SDS011;39148;53.332;6.922;2023-07-29T04:41:25;5.57;;;2.70;;
53253;SDS011;39148;53.332;6.922;2023-07-29T04:43:51;4.68;;;2.28;;
53253;SDS011;39148;53.332;6.922;2023-07-29T04:46:17;4.07;;;2.30;;
53253;SDS011;39148;53.332;6.922;2023-07-29T04:48:43;3.95;;;2.35;;
53253;SDS011;39148;53.332;6.922;2023-07-29T04:51:08;3.80;;;2.08;;
53253;SDS011;39148;53.332;6.922;2023-07-29T04:53:34;4.80;;;2.15;;
53253;SDS011;39148;53.332;6.922;2023-07-29T04:56:01;4.32;;;2.25;;
53253;SDS011;39148;53.332;6.922;2023-07-29T04:58:27;3.50;;;2.00;;
53253;SDS011;39148;53.332;6.922;2023-07-29T05:00:55;3.97;;;1.92;;
53253;SDS011;39148;53.332;6.922;2023-07-29T05:03:21;3.90;;;2.08;;
53253;SDS011;39148;53.332;6.922;2023-07-29T05:05:46;4.53;;;2.22;;
53253;SDS011;39148;53.332;6.922;2023-07-29T05:08:12;4.45;;;1.90;;
53253;SDS011;39148;53.332;6.922;2023-07-29T05:10:38;4.20;;;2.05;;
53253;SDS011;39148;53.332;6.922;2023-07-29T05:13:03;2.85;;;1.67;;
53253;SDS011;39148;53.332;6.922;2023-07-29T05:15:29;3.10;;;1.90;;
53253;SDS011;39148;53.332;6.922;2023-07-29T05:17:55;3.75;;;1.65;;
53253;SDS011;39148;53.332;6.922;2023-07-29T05:20:21;3.10;;;1.63;;
53253;SDS011;39148;53.332;6.922;2023-07-29T05:22:47;4.00;;;1.83;;
53253;SDS011;39148;53.332;6.922;2023-07-29T05:25:12;5.20;;;1.88;;
53253;SDS011;39148;53.332;6.922;2023-07-29T05:27:38;4.20;;;2.20;;
53253;SDS011;39148;53.332;6.922;2023-07-29T05:30:04;4.22;;;1.85;;
53253;SDS011;39148;53.332;6.922;2023-07-29T05:32:31;3.60;;;1.80;;
53253;SDS011;39148;53.332;6.922;2023-07-29T05:34:57;4.30;;;1.70;;
53253;SDS011;39148;53.332;6.922;2023-07-29T05:37:23;5.35;;;1.88;;
53253;SDS011;39148;53.332;6.922;2023-07-29T05:39:48;4.50;;;1.73;;
53253;SDS011;39148;53.332;6.922;2023-07-29T05:42:14;3.67;;;1.77;;
53253;SDS011;39148;53.332;6.922;2023-07-29T05:44:39;3.13;;;1.70;;
53253;SDS011;39148;53.332;6.922;2023-07-29T05:47:05;4.90;;;1.77;;
53253;SDS011;39148;53.332;6.922;2023-07-29T05:49:31;2.83;;;1.50;;
53253;SDS011;39148;53.332;6.922;2023-07-29T05:51:57;3.42;;;1.70;;
53253;SDS011;39148;53.332;6.922;2023-07-29T05:54:23;3.63;;;1.83;;
53253;SDS011;39148;53.332;6.922;2023-07-29T05:56:48;3.70;;;1.70;;
53253;SDS011;39148;53.332;6.922;2023-07-29T05:59:14;3.38;;;1.50;;
53253;SDS011;39148;53.332;6.922;2023-07-29T06:01:40;3.00;;;1.58;;
53253;SDS011;39148;53.332;6.922;2023-07-29T06:04:05;4.25;;;1.55;;
53253;SDS011;39148;53.332;6.922;2023-07-29T06:06:31;2.97;;;1.55;;
53253;SDS011;39148;53.332;6.922;2023-07-29T06:08:57;2.00;;;1.20;;
53253;SDS011;39148;53.332;6.922;2023-07-29T06:11:23;3.28;;;1.50;;
53253;SDS011;39148;53.332;6.922;2023-07-29T06:13:49;3.53;;;1.35;;
53253;SDS011;39148;53.332;6.922;2023-07-29T06:16:14;2.83;;;1.42;;
53253;SDS011;39148;53.332;6.922;2023-07-29T06:18:40;2.95;;;1.50;;
53253;SDS011;39148;53.332;6.922;2023-07-29T06:21:05;2.65;;;1.50;;
53253;SDS011;39148;53.332;6.922;2023-07-29T06:23:33;3.03;;;1.50;;
53253;SDS011;39148;53.332;6.922;2023-07-29T06:25:59;2.00;;;1.20;;
53253;SDS011;39148;53.332;6.922;2023-07-29T06:28:25;2.30;;;0.98;;
53253;SDS011;39148;53.332;6.922;2023-07-29T06:30:51;2.20;;;1.20;;
53253;SDS011;39148;53.332;6.922;2023-07-29T06:33:17;2.15;;;1.30;;
53253;SDS011;39148;53.332;6.922;2023-07-29T06:35:43;3.00;;;1.20;;
53253;SDS011;39148;53.332;6.922;2023-07-29T06:38:09;3.28;;;1.35;;
53253;SDS011;39148;53.332;6.922;2023-07-29T06:40:35;2.35;;;1.20;;
53253;SDS011;39148;53.332;6.922;2023-07-29T06:43:00;3.03;;;1.20;;
53253;SDS011;39148;53.332;6.922;2023-07-29T06:45:26;1.77;;;0.93;;
53253;SDS011;39148;53.332;6.922;2023-07-29T06:47:52;1.95;;;1.10;;
53253;SDS011;39148;53.332;6.922;2023-07-29T06:50:17;2.75;;;1.25;;
53253;SDS011;39148;53.332;6.922;2023-07-29T06:52:43;2.38;;;1.00;;
53253;SDS011;39148;53.332;6.922;2023-07-29T06:55:09;2.90;;;1.40;;
53253;SDS011;39148;53.332;6.922;2023-07-29T06:57:35;1.52;;;0.85;;
53253;SDS011;39148;53.332;6.922;2023-07-29T07:00:01;2.80;;;1.15;;
53253;SDS011;39148;53.332;6.922;2023-07-29T07:02:27;2.22;;;1.10;;
53253;SDS011;39148;53.332;6.922;2023-07-29T07:04:53;2.28;;;1.20;;
53253;SDS011;39148;53.332;6.922;2023-07-29T07:07:19;2.65;;;1.23;;
53253;SDS011;39148;53.332;6.922;2023-07-29T07:09:44;2.80;;;0.95;;
53253;SDS011;39148;53.332;6.922;2023-07-29T07:12:10;1.92;;;1.05;;
53253;SDS011;39148;53.332;6.922;2023-07-29T07:14:36;1.60;;;0.90;;
53253;SDS011;39148;53.332;6.922;2023-07-29T07:17:02;4.38;;;1.20;;
53253;SDS011;39148;53.332;6.922;2023-07-29T07:19:28;2.20;;;0.90;;
53253;SDS011;39148;53.332;6.922;2023-07-29T07:21:54;2.17;;;1.08;;
53253;SDS011;39148;53.332;6.922;2023-07-29T07:24:19;2.33;;;1.00;;
53253;SDS011;39148;53.332;6.922;2023-07-29T07:26:45;3.05;;;1.10;;
53253;SDS011;39148;53.332;6.922;2023-07-29T07:29:11;3.17;;;1.15;;
53253;SDS011;39148;53.332;6.922;2023-07-29T07:31:36;2.58;;;1.00;;
53253;SDS011;39148;53.332;6.922;2023-07-29T07:34:02;2.03;;;0.90;;
53253;SDS011;39148;53.332;6.922;2023-07-29T07:36:28;3.25;;;1.08;;
53253;SDS011;39148;53.332;6.922;2023-07-29T07:38:54;2.88;;;0.90;;
53253;SDS011;39148;53.332;6.922;2023-07-29T07:41:20;2.58;;;1.00;;
53253;SDS011;39148;53.332;6.922;2023-07-29T07:43:46;1.67;;;0.85;;
53253;SDS011;39148;53.332;6.922;2023-07-29T07:46:11;2.33;;;1.02;;
53253;SDS011;39148;53.332;6.922;2023-07-29T07:48:37;2.40;;;1.00;;
53253;SDS011;39148;53.332;6.922;2023-07-29T07:51:10;2.20;;;0.90;;
53253;SDS011;39148;53.332;6.922;2023-07-29T07:53:37;2.28;;;1.00;;
53253;SDS011;39148;53.332;6.922;2023-07-29T07:56:03;2.28;;;0.93;;
53253;SDS011;39148;53.332;6.922;2023-07-29T07:58:28;1.83;;;0.90;;
53253;SDS011;39148;53.332;6.922;2023-07-29T08:01:00;3.38;;;1.08;;
53253;SDS011;39148;53.332;6.922;2023-07-29T08:03:33;3.38;;;1.00;;
53253;SDS011;39148;53.332;6.922;2023-07-29T08:05:59;2.50;;;1.10;;
53253;SDS011;39148;53.332;6.922;2023-07-29T08:08:25;2.95;;;1.45;;
53253;SDS011;39148;53.332;6.922;2023-07-29T08:10:55;2.45;;;1.08;;
53253;SDS011;39148;53.332;6.922;2023-07-29T08:13:22;2.55;;;1.00;;
53253;SDS011;39148;53.332;6.922;2023-07-29T08:15:49;2.13;;;1.10;;
53253;SDS011;39148;53.332;6.922;2023-07-29T08:18:16;2.03;;;0.82;;
53253;SDS011;39148;53.332;6.922;2023-07-29T08:20:58;2.60;;;1.10;;
53253;SDS011;39148;53.332;6.922;2023-07-29T08:23:28;3.28;;;1.00;;
53253;SDS011;39148;53.332;6.922;2023-07-29T08:26:00;3.10;;;0.98;;
53253;SDS011;39148;53.332;6.922;2023-07-29T08:28:30;3.70;;;1.20;;
53253;SDS011;39148;53.332;6.922;2023-07-29T08:30:56;2.50;;;0.80;;
53253;SDS011;39148;53.332;6.922;2023-07-29T08:33:22;3.45;;;1.00;;
53253;SDS011;39148;53.332;6.922;2023-07-29T08:35:48;2.40;;;1.00;;
53253;SDS011;39148;53.332;6.922;2023-07-29T08:38:14;2.97;;;0.93;;
53253;SDS011;39148;53.332;6.922;2023-07-29T08:40:54;4.32;;;0.90;;
53253;SDS011;39148;53.332;6.922;2023-07-29T08:43:31;5.40;;;1.40;;
53253;SDS011;39148;53.332;6.922;2023-07-29T08:46:00;2.17;;;1.00;;
53253;SDS011;39148;53.332;6.922;2023-07-29T08:48:31;2.25;;;0.90;;
53253;SDS011;39148;53.332;6.922;2023-07-29T08:51:01;2.70;;;1.00;;
53253;SDS011;39148;53.332;6.922;2023-07-29T08:53:30;2.70;;;1.02;;
53253;SDS011;39148;53.332;6.922;2023-07-29T08:55:56;2.80;;;1.15;;
53253;SDS011;39148;53.332;6.922;2023-07-29T08:58:23;3.60;;;1.45;;
53253;SDS011;39148;53.332;6.922;2023-07-29T09:00:49;3.03;;;1.10;;
53253;SDS011;39148;53.332;6.922;2023-07-29T09:03:15;3.55;;;1.13;;
53253;SDS011;39148;53.332;6.922;2023-07-29T09:05:41;2.78;;;1.20;;
53253;SDS011;39148;53.332;6.922;2023-07-29T09:08:07;2.63;;;1.10;;
53253;SDS011;39148;53.332;6.922;2023-07-29T09:10:36;3.97;;;1.10;;
53253;SDS011;39148;53.332;6.922;2023-07-29T09:13:03;3.10;;;1.00;;
53253;SDS011;39148;53.332;6.922;2023-07-29T09:15:29;2.22;;;0.90;;
53253;SDS011;39148;53.332;6.922;2023-07-29T09:17:57;5.43;;;1.20;;
53253;SDS011;39148;53.332;6.922;2023-07-29T09:20:23;3.60;;;1.02;;
53253;SDS011;39148;53.332;6.922;2023-07-29T09:22:54;2.63;;;0.80;;
53253;SDS011;39148;53.332;6.922;2023-07-29T09:25:24;2.88;;;1.30;;
53253;SDS011;39148;53.332;6.922;2023-07-29T09:27:50;2.85;;;1.10;;
53253;SDS011;39148;53.332;6.922;2023-07-29T09:30:16;2.75;;;0.95;;
53253;SDS011;39148;53.332;6.922;2023-07-29T09:32:42;2.35;;;1.00;;
53253;SDS011;39148;53.332;6.922;2023-07-29T09:35:14;2.28;;;0.93;;
53253;SDS011;39148;53.332;6.922;2023-07-29T09:37:39;2.47;;;1.00;;
53253;SDS011;39148;53.332;6.922;2023-07-29T09:40:06;4.95;;;1.30;;
53253;SDS011;39148;53.332;6.922;2023-07-29T09:42:32;2.40;;;0.93;;
53253;SDS011;39148;53.332;6.922;2023-07-29T09:44:58;4.00;;;1.10;;
53253;SDS011;39148;53.332;6.922;2023-07-29T09:47:24;2.80;;;1.17;;
53253;SDS011;39148;53.332;6.922;2023-07-29T09:49:52;3.13;;;1.20;;
53253;SDS011;39148;53.332;6.922;2023-07-29T09:52:18;2.78;;;1.10;;
53253;SDS011;39148;53.332;6.922;2023-07-29T09:54:47;2.38;;;1.08;;
53253;SDS011;39148;53.332;6.922;2023-07-29T09:57:13;2.08;;;0.90;;
53253;SDS011;39148;53.332;6.922;2023-07-29T09:59:41;3.17;;;0.95;;
53253;SDS011;39148;53.332;6.922;2023-07-29T10:02:13;2.80;;;0.93;;
53253;SDS011;39148;53.332;6.922;2023-07-29T10:04:41;2.65;;;1.00;;
53253;SDS011;39148;53.332;6.922;2023-07-29T10:07:09;2.70;;;1.10;;
53253;SDS011;39148;53.332;6.922;2023-07-29T10:09:36;3.90;;;1.20;;
53253;SDS011;39148;53.332;6.922;2023-07-29T10:12:03;2.90;;;0.90;;
53253;SDS011;39148;53.332;6.922;2023-07-29T10:14:31;2.33;;;0.80;;
53253;SDS011;39148;53.332;6.922;2023-07-29T10:16:57;2.72;;;1.35;;
53253;SDS011;39148;53.332;6.922;2023-07-29T10:19:24;3.22;;;1.00;;
53253;SDS011;39148;53.332;6.922;2023-07-29T10:21:51;3.08;;;1.05;;
53253;SDS011;39148;53.332;6.922;2023-07-29T10:24:19;3.38;;;1.20;;
53253;SDS011;39148;53.332;6.922;2023-07-29T10:26:54;3.40;;;1.15;;
53253;SDS011;39148;53.332;6.922;2023-07-29T10:29:24;2.88;;;0.82;;
53253;SDS011;39148;53.332;6.922;2023-07-29T10:31:54;3.83;;;1.03;;
53253;SDS011;39148;53.332;6.922;2023-07-29T10:34:22;6.20;;;1.02;;
53253;SDS011;39148;53.332;6.922;2023-07-29T10:36:48;2.65;;;1.00;;
53253;SDS011;39148;53.332;6.922;2023-07-29T10:39:15;2.60;;;1.10;;
53253;SDS011;39148;53.332;6.922;2023-07-29T10:42:00;3.08;;;0.98;;
53253;SDS011;39148;53.332;6.922;2023-07-29T10:47:13;2.83;;;1.08;;
53253;SDS011;39148;53.332;6.922;2023-07-29T10:49:40;3.28;;;1.30;;
53253;SDS011;39148;53.332;6.922;2023-07-29T10:52:06;2.65;;;1.00;;
53253;SDS011;39148;53.332;6.922;2023-07-29T10:54:41;2.08;;;1.00;;
53253;SDS011;39148;53.332;6.922;2023-07-29T10:57:14;2.67;;;0.85;;
53253;SDS011;39148;53.332;6.922;2023-07-29T10:59:54;4.20;;;0.90;;
53253;SDS011;39148;53.332;6.922;2023-07-29T11:02:20;3.25;;;0.90;;
53253;SDS011;39148;53.332;6.922;2023-07-29T11:04:53;1.95;;;0.80;;
53253;SDS011;39148;53.332;6.922;2023-07-29T11:07:19;2.85;;;0.82;;
53253;SDS011;39148;53.332;6.922;2023-07-29T11:12:35;1.98;;;0.93;;
53253;SDS011;39148;53.332;6.922;2023-07-29T11:17:36;2.95;;;1.00;;
53253;SDS011;39148;53.332;6.922;2023-07-29T11:20:04;2.10;;;0.90;;
53253;SDS011;39148;53.332;6.922;2023-07-29T11:22:32;1.52;;;0.65;;
53253;SDS011;39148;53.332;6.922;2023-07-29T11:24:59;3.25;;;0.93;;
53253;SDS011;39148;53.332;6.922;2023-07-29T11:27:25;2.72;;;1.00;;
53253;SDS011;39148;53.332;6.922;2023-07-29T11:29:50;2.35;;;0.70;;
53253;SDS011;39148;53.332;6.922;2023-07-29T11:32:22;2.30;;;0.80;;
53253;SDS011;39148;53.332;6.922;2023-07-29T11:34:48;2.40;;;0.82;;
53253;SDS011;39148;53.332;6.922;2023-07-29T11:37:14;2.72;;;0.90;;
53253;SDS011;39148;53.332;6.922;2023-07-29T11:39:40;2.13;;;0.90;;
53253;SDS011;39148;53.332;6.922;2023-07-29T11:42:11;1.83;;;0.65;;
53253;SDS011;39148;53.332;6.922;2023-07-29T11:44:37;3.15;;;0.80;;
53253;SDS011;39148;53.332;6.922;2023-07-29T11:47:06;3.05;;;0.93;;
53253;SDS011;39148;53.332;6.922;2023-07-29T11:49:33;2.55;;;0.88;;
53253;SDS011;39148;53.332;6.922;2023-07-29T11:51:59;3.00;;;0.95;;
53253;SDS011;39148;53.332;6.922;2023-07-29T11:54:26;1.88;;;0.75;;
53253;SDS011;39148;53.332;6.922;2023-07-29T11:56:51;2.40;;;0.90;;
53253;SDS011;39148;53.332;6.922;2023-07-29T11:59:17;2.33;;;0.75;;
53253;SDS011;39148;53.332;6.922;2023-07-29T12:01:44;2.00;;;0.73;;
53253;SDS011;39148;53.332;6.922;2023-07-29T12:04:10;2.50;;;0.80;;
53253;SDS011;39148;53.332;6.922;2023-07-29T12:06:37;3.38;;;0.70;;
53253;SDS011;39148;53.332;6.922;2023-07-29T12:09:04;3.55;;;0.80;;
53253;SDS011;39148;53.332;6.922;2023-07-29T12:11:30;1.77;;;0.70;;
53253;SDS011;39148;53.332;6.922;2023-07-29T12:13:57;1.60;;;0.80;;
53253;SDS011;39148;53.332;6.922;2023-07-29T12:16:24;3.08;;;0.80;;
53253;SDS011;39148;53.332;6.922;2023-07-29T12:18:50;1.75;;;0.50;;
53253;SDS011;39148;53.332;6.922;2023-07-29T12:21:16;2.67;;;0.75;;
53253;SDS011;39148;53.332;6.922;2023-07-29T12:23:44;1.73;;;0.77;;
53253;SDS011;39148;53.332;6.922;2023-07-29T12:26:09;1.38;;;0.52;;
53253;SDS011;39148;53.332;6.922;2023-07-29T12:28:35;2.45;;;0.70;;
53253;SDS011;39148;53.332;6.922;2023-07-29T12:31:01;1.75;;;0.70;;
53253;SDS011;39148;53.332;6.922;2023-07-29T12:33:33;1.52;;;0.70;;
53253;SDS011;39148;53.332;6.922;2023-07-29T12:36:07;2.10;;;0.70;;
53253;SDS011;39148;53.332;6.922;2023-07-29T12:38:33;3.17;;;0.80;;
53253;SDS011;39148;53.332;6.922;2023-07-29T12:40:58;2.20;;;0.70;;
53253;SDS011;39148;53.332;6.922;2023-07-29T12:43:24;1.92;;;0.70;;
53253;SDS011;39148;53.332;6.922;2023-07-29T12:45:51;2.10;;;0.63;;
53253;SDS011;39148;53.332;6.922;2023-07-29T12:48:17;2.92;;;0.82;;
53253;SDS011;39148;53.332;6.922;2023-07-29T12:50:43;2.05;;;0.80;;
53253;SDS011;39148;53.332;6.922;2023-07-29T12:53:09;3.03;;;0.80;;
53253;SDS011;39148;53.332;6.922;2023-07-29T12:55:37;3.95;;;1.05;;
53253;SDS011;39148;53.332;6.922;2023-07-29T12:58:03;3.58;;;0.93;;
53253;SDS011;39148;53.332;6.922;2023-07-29T13:00:29;1.73;;;0.73;;
53253;SDS011;39148;53.332;6.922;2023-07-29T13:02:55;1.73;;;0.60;;
53253;SDS011;39148;53.332;6.922;2023-07-29T13:05:21;2.85;;;0.80;;
53253;SDS011;39148;53.332;6.922;2023-07-29T13:07:47;2.25;;;0.68;;
53253;SDS011;39148;53.332;6.922;2023-07-29T13:10:12;2.40;;;0.70;;
53253;SDS011;39148;53.332;6.922;2023-07-29T13:12:39;2.75;;;0.73;;
53253;SDS011;39148;53.332;6.922;2023-07-29T13:15:05;2.78;;;0.70;;
53253;SDS011;39148;53.332;6.922;2023-07-29T13:17:31;1.98;;;0.65;;
53253;SDS011;39148;53.332;6.922;2023-07-29T13:19:58;2.28;;;0.77;;
53253;SDS011;39148;53.332;6.922;2023-07-29T13:22:23;2.70;;;0.82;;
53253;SDS011;39148;53.332;6.922;2023-07-29T13:24:49;2.17;;;0.70;;
53253;SDS011;39148;53.332;6.922;2023-07-29T13:27:15;1.52;;;0.70;;
53253;SDS011;39148;53.332;6.922;2023-07-29T13:29:40;3.05;;;1.15;;
53253;SDS011;39148;53.332;6.922;2023-07-29T13:32:06;1.67;;;0.60;;
53253;SDS011;39148;53.332;6.922;2023-07-29T13:34:32;4.43;;;1.48;;
53253;SDS011;39148;53.332;6.922;2023-07-29T13:36:59;3.22;;;1.08;;
53253;SDS011;39148;53.332;6.922;2023-07-29T13:39:25;3.65;;;1.08;;
53253;SDS011;39148;53.332;6.922;2023-07-29T13:41:52;3.17;;;1.00;;
53253;SDS011;39148;53.332;6.922;2023-07-29T13:44:18;3.40;;;0.77;;
53253;SDS011;39148;53.332;6.922;2023-07-29T13:46:43;1.77;;;0.70;;
53253;SDS011;39148;53.332;6.922;2023-07-29T13:49:09;2.45;;;0.70;;
53253;SDS011;39148;53.332;6.922;2023-07-29T13:51:35;3.85;;;0.85;;
53253;SDS011;39148;53.332;6.922;2023-07-29T13:54:01;2.72;;;0.93;;
53253;SDS011;39148;53.332;6.922;2023-07-29T13:56:26;3.35;;;0.80;;
53253;SDS011;39148;53.332;6.922;2023-07-29T13:58:52;3.13;;;0.88;;
53253;SDS011;39148;53.332;6.922;2023-07-29T14:01:18;1.48;;;0.70;;
53253;SDS011;39148;53.332;6.922;2023-07-29T14:03:43;1.77;;;0.60;;
53253;SDS011;39148;53.332;6.922;2023-07-29T14:06:09;1.58;;;0.70;;
53253;SDS011;39148;53.332;6.922;2023-07-29T14:08:35;2.67;;;0.70;;
53253;SDS011;39148;53.332;6.922;2023-07-29T14:11:01;2.25;;;0.82;;
53253;SDS011;39148;53.332;6.922;2023-07-29T14:13:26;2.30;;;0.70;;
53253;SDS011;39148;53.332;6.922;2023-07-29T14:15:52;1.63;;;0.63;;
53253;SDS011;39148;53.332;6.922;2023-07-29T14:18:17;1.50;;;0.65;;
53253;SDS011;39148;53.332;6.922;2023-07-29T14:20:43;2.65;;;0.80;;
53253;SDS011;39148;53.332;6.922;2023-07-29T14:23:09;2.35;;;0.82;;
53253;SDS011;39148;53.332;6.922;2023-07-29T14:25:35;3.70;;;0.98;;
53253;SDS011;39148;53.332;6.922;2023-07-29T14:28:00;1.80;;;0.70;;
53253;SDS011;39148;53.332;6.922;2023-07-29T14:30:26;1.98;;;0.65;;
53253;SDS011;39148;53.332;6.922;2023-07-29T14:32:52;1.77;;;0.60;;
53253;SDS011;39148;53.332;6.922;2023-07-29T14:35:17;3.28;;;0.90;;
53253;SDS011;39148;53.332;6.922;2023-07-29T14:37:43;1.45;;;0.50;;
53253;SDS011;39148;53.332;6.922;2023-07-29T14:40:09;2.67;;;0.90;;
53253;SDS011;39148;53.332;6.922;2023-07-29T14:42:34;1.85;;;0.60;;
53253;SDS011;39148;53.332;6.922;2023-07-29T14:45:00;2.70;;;0.70;;
53253;SDS011;39148;53.332;6.922;2023-07-29T14:47:26;2.35;;;0.70;;
53253;SDS011;39148;53.332;6.922;2023-07-29T14:49:51;2.17;;;0.70;;
53253;SDS011;39148;53.332;6.922;2023-07-29T14:52:17;2.05;;;0.80;;
53253;SDS011;39148;53.332;6.922;2023-07-29T14:54:43;2.53;;;0.80;;
53253;SDS011;39148;53.332;6.922;2023-07-29T14:57:09;2.42;;;0.65;;